Time;durP1;ratioP1;P1;durP2;ratioP2;P2;SDS_P1;SDS_P2;PMS_P1;PMS_P2;Temp;Humidity;BMP_temperature;BMP_pressure;BME280_temperature;BME280_humidity;BME280_pressure;Samples;Min_cycle;Max_cycle;Signal;HPM_P1;HPM_P2
2022/02/17 00:01:14;;;;;;;1.40;1.30;;;;;;;12.62;100.00;95107.34;4987437;28;20066;-62
2022/02/17 00:03:42;;;;;;;2.97;1.40;;;;;;;12.53;100.00;95111.97;4982124;28;20085;-58
2022/02/17 00:06:11;;;;;;;1.35;1.27;;;;;;;12.72;100.00;95070.00;4984800;28;20081;-52
2022/02/17 00:08:40;;;;;;;1.50;1.40;;;;;;;12.61;100.00;95049.38;4986127;28;20560;-57
2022/02/17 00:11:09;;;;;;;1.48;1.38;;;;;;;12.70;100.00;95094.00;4986332;28;20515;-56
2022/02/17 00:13:38;;;;;;;1.25;1.25;;;;;;;12.64;100.00;95078.06;4967988;28;20074;-57
2022/02/17 00:16:06;;;;;;;1.40;1.30;;;;;;;12.68;100.00;95037.00;4966971;28;20074;-60
2022/02/17 00:18:35;;;;;;;1.48;1.45;;;;;;;12.96;100.00;95089.91;4966490;28;20078;-56
2022/02/17 00:21:04;;;;;;;1.30;1.30;;;;;;;12.85;100.00;95127.47;4968856;28;20051;-58
2022/02/17 00:23:33;;;;;;;1.38;1.30;;;;;;;12.97;100.00;95084.44;4969937;28;21546;-56
2022/02/17 00:26:02;;;;;;;1.25;1.25;;;;;;;12.89;100.00;95096.97;4967689;28;20093;-59
2022/02/17 00:28:31;;;;;;;1.33;1.33;;;;;;;12.96;100.00;95074.03;4966159;28;20458;-58
2022/02/17 00:31:00;;;;;;;1.58;1.48;;;;;;;13.05;100.00;95104.63;4963284;28;20110;-54
2022/02/17 00:33:28;;;;;;;1.20;1.20;;;;;;;12.94;100.00;95081.34;4988857;28;20073;-57
2022/02/17 00:35:57;;;;;;;1.30;1.30;;;;;;;12.98;100.00;95117.00;4971559;28;20051;-56
2022/02/17 00:38:25;;;;;;;1.50;1.48;;;;;;;13.02;100.00;95060.03;4983389;28;20088;-57
2022/02/17 00:40:54;;;;;;;1.30;1.30;;;;;;;13.14;100.00;95076.19;4966952;28;20093;-59
2022/02/17 00:43:22;;;;;;;1.23;1.23;;;;;;;13.06;100.00;95050.69;4966976;28;20085;-55
2022/02/17 00:45:52;;;;;;;1.40;1.30;;;;;;;13.24;100.00;95056.31;4970639;28;20077;-57
2022/02/17 00:48:23;;;;;;;1.50;1.40;;;;;;;13.16;100.00;95068.88;4970738;28;20089;-59
2022/02/17 00:50:51;;;;;;;1.23;1.23;;;;;;;13.09;100.00;95065.38;4967415;28;20081;-53
2022/02/17 00:53:19;;;;;;;1.45;1.30;;;;;;;13.21;100.00;95047.91;4971278;28;20082;-56
2022/02/17 00:55:48;;;;;;;1.40;1.30;;;;;;;13.16;100.00;95076.81;4972702;28;20085;-58
2022/02/17 00:58:16;;;;;;;1.20;1.20;;;;;;;13.34;100.00;95090.38;4966233;28;20077;-55
2022/02/17 01:00:45;;;;;;;1.20;1.20;;;;;;;13.39;100.00;95068.63;4976557;28;20073;-59
2022/02/17 01:03:15;;;;;;;1.23;1.20;;;;;;;13.43;100.00;95062.75;4986272;28;20073;-55
2022/02/17 01:05:43;;;;;;;1.27;1.27;;;;;;;13.25;100.00;95063.25;4980943;28;20062;-57
2022/02/17 01:08:12;;;;;;;1.38;1.27;;;;;;;13.31;100.00;95066.94;4992647;28;20122;-50
2022/02/17 01:10:40;;;;;;;1.33;1.23;;;;;;;13.39;100.00;95089.81;4963754;28;20755;-56
2022/02/17 01:13:09;;;;;;;1.88;1.40;;;;;;;13.29;100.00;95076.94;4968826;28;20143;-54
2022/02/17 01:15:37;;;;;;;1.10;1.10;;;;;;;13.32;100.00;95047.41;4978358;28;20073;-55
2022/02/17 01:18:06;;;;;;;1.30;1.30;;;;;;;13.41;100.00;95108.94;4972756;28;20128;-57
2022/02/17 01:20:36;;;;;;;1.25;1.25;;;;;;;13.21;100.00;95075.22;4967662;28;20434;-59
2022/02/17 01:23:04;;;;;;;1.40;1.40;;;;;;;13.19;100.00;95065.84;4964489;28;20536;-52
2022/02/17 01:25:33;;;;;;;1.30;1.30;;;;;;;13.18;100.00;95093.28;4990856;28;20076;-56
2022/02/17 01:28:01;;;;;;;3.35;1.30;;;;;;;13.12;100.00;95076.38;4983532;28;20074;-54
2022/02/17 01:30:30;;;;;;;1.50;1.40;;;;;;;13.09;100.00;95058.25;4986060;28;20066;-57
2022/02/17 01:32:59;;;;;;;1.42;1.40;;;;;;;13.03;100.00;95048.44;4988891;28;20062;-54
2022/02/17 01:35:28;;;;;;;1.30;1.30;;;;;;;12.97;100.00;95006.88;4992546;28;20070;-55
2022/02/17 01:37:57;;;;;;;1.52;1.42;;;;;;;13.07;100.00;95044.38;4991588;28;20082;-55
2022/02/17 01:40:26;;;;;;;1.30;1.30;;;;;;;13.12;100.00;95076.38;4991217;28;20069;-52
2022/02/17 01:42:54;;;;;;;1.20;1.20;;;;;;;13.06;100.00;95090.38;4988974;28;20065;-54
2022/02/17 01:45:23;;;;;;;1.30;1.30;;;;;;;13.15;100.00;95067.25;4998450;28;20078;-59
2022/02/17 01:47:51;;;;;;;1.38;1.35;;;;;;;13.22;100.00;95029.22;4967838;28;20074;-56
2022/02/17 01:50:20;;;;;;;1.20;1.20;;;;;;;13.14;100.00;95029.34;4984810;28;20078;-54
2022/02/17 01:52:48;;;;;;;1.85;1.20;;;;;;;13.29;100.00;95018.69;4970308;28;20082;-52
2022/02/17 01:55:20;;;;;;;1.55;1.30;;;;;;;13.28;100.00;94998.50;4966660;28;20075;-56
2022/02/17 01:57:48;;;;;;;1.40;1.30;;;;;;;13.25;100.00;94965.31;4969376;28;20066;-51
2022/02/17 02:00:17;;;;;;;1.30;1.30;;;;;;;13.42;100.00;95024.03;4969258;28;20047;-52
2022/02/17 02:02:46;;;;;;;1.35;1.35;;;;;;;13.23;100.00;94995.59;4965327;28;20070;-52
2022/02/17 02:05:15;;;;;;;1.45;1.35;;;;;;;13.24;100.00;94995.44;4966928;28;20089;-57
2022/02/17 02:07:44;;;;;;;1.33;1.33;;;;;;;13.39;100.00;95005.09;5008618;28;20073;-56
2022/02/17 02:10:12;;;;;;;1.30;1.20;;;;;;;13.47;100.00;94905.09;4988620;28;20473;-58
2022/02/17 02:12:42;;;;;;;1.35;1.35;;;;;;;13.28;100.00;95017.03;4990424;28;20464;-56
2022/02/17 02:15:11;;;;;;;1.25;1.25;;;;;;;13.46;100.00;94997.97;4988082;28;20064;-57
2022/02/17 02:17:40;;;;;;;1.40;1.30;;;;;;;13.40;100.00;95015.47;4987205;28;20046;-57
2022/02/17 02:20:09;;;;;;;2.08;1.40;;;;;;;13.52;100.00;94984.75;4992360;28;20084;-56
2022/02/17 02:22:39;;;;;;;1.27;1.27;;;;;;;13.46;100.00;94971.50;4986957;28;20328;-57
2022/02/17 02:25:09;;;;;;;1.35;1.25;;;;;;;13.61;100.00;94988.03;4990952;28;20074;-54
2022/02/17 02:27:37;;;;;;;1.55;1.45;;;;;;;13.77;100.00;95016.00;4986329;28;20077;-54
2022/02/17 02:30:07;;;;;;;1.50;1.40;;;;;;;13.70;100.00;95009.88;4988246;28;20096;-57
2022/02/17 02:32:36;;;;;;;1.30;1.30;;;;;;;13.68;100.00;94988.88;4987566;28;20073;-58
2022/02/17 02:35:05;;;;;;;1.30;1.20;;;;;;;13.72;100.00;94973.38;4992892;28;20047;-56
2022/02/17 02:37:33;;;;;;;1.30;1.30;;;;;;;13.74;100.00;95006.63;4991343;28;20126;-52
2022/02/17 02:40:04;;;;;;;1.30;1.23;;;;;;;13.69;100.00;94984.38;4986374;28;20081;-51
2022/02/17 02:42:32;;;;;;;1.27;1.27;;;;;;;13.88;100.00;94978.31;4988196;28;20085;-58
2022/02/17 02:45:01;;;;;;;2.05;1.30;;;;;;;13.70;100.00;94955.06;4983585;28;20787;-60
2022/02/17 02:47:30;;;;;;;1.30;1.20;;;;;;;13.88;100.00;94972.22;4966931;28;20071;-57
2022/02/17 02:49:58;;;;;;;1.20;1.20;;;;;;;13.83;100.00;94927.75;4966926;28;20062;-56
2022/02/17 02:52:27;;;;;;;1.10;1.10;;;;;;;13.84;100.00;94933.88;4969483;28;20443;-57
2022/02/17 02:54:55;;;;;;;1.23;1.23;;;;;;;13.75;100.00;94912.06;4981968;28;20568;-57
2022/02/17 02:57:25;;;;;;;1.20;1.20;;;;;;;13.91;100.00;94913.50;4987296;28;20069;-53
2022/02/17 02:59:54;;;;;;;1.75;1.23;;;;;;;13.83;100.00;94930.41;4987934;28;20098;-55
2022/02/17 03:02:22;;;;;;;1.10;1.10;;;;;;;13.88;100.00;94879.47;4984893;28;20070;-58
2022/02/17 03:04:51;;;;;;;1.13;1.13;;;;;;;13.98;100.00;94916.97;4972208;28;20104;-54
2022/02/17 03:07:20;;;;;;;1.20;1.20;;;;;;;13.77;100.00;94878.25;4970856;28;20061;-58
2022/02/17 03:09:48;;;;;;;2.25;1.10;;;;;;;13.92;100.00;94902.69;4981638;28;20077;-54
2022/02/17 03:12:17;;;;;;;1.30;1.30;;;;;;;13.87;100.00;94907.00;4987722;28;20145;-53
2022/02/17 03:14:47;;;;;;;1.20;1.20;;;;;;;13.94;100.00;94903.31;4986427;28;20046;-55
2022/02/17 03:17:15;;;;;;;1.10;1.10;;;;;;;14.09;100.00;94912.91;4987004;28;20077;-59
2022/02/17 03:19:44;;;;;;;1.20;1.20;;;;;;;13.99;100.00;94947.75;4976375;28;20070;-51
2022/02/17 03:22:12;;;;;;;1.20;1.20;;;;;;;14.06;100.00;94913.31;4973569;28;20730;-56
2022/02/17 03:24:41;;;;;;;1.20;1.20;;;;;;;14.27;100.00;94889.22;4975259;28;20465;-56
2022/02/17 03:27:09;;;;;;;2.90;1.20;;;;;;;14.21;100.00;94895.34;4978370;28;20061;-54
2022/02/17 03:29:38;;;;;;;1.25;1.15;;;;;;;14.07;100.00;94894.53;4985615;28;20066;-56
2022/02/17 03:32:09;;;;;;;2.70;1.40;;;;;;;14.05;100.00;94901.88;4989350;28;20066;-54
2022/02/17 03:34:37;;;;;;;1.10;1.10;;;;;;;14.09;100.00;94910.25;4989318;28;20097;-54
2022/02/17 03:37:06;;;;;;;1.20;1.20;;;;;;;14.23;100.00;94915.34;4987952;28;20071;-57
2022/02/17 03:39:34;;;;;;;1.40;1.30;;;;;;;14.07;100.00;94901.66;4984922;28;20066;-54
2022/02/17 03:42:03;;;;;;;1.10;1.10;;;;;;;14.05;100.00;94891.28;4978321;28;20058;-56
2022/02/17 03:44:32;;;;;;;1.30;1.20;;;;;;;14.09;100.00;94904.94;4968936;28;20070;-56
2022/02/17 03:47:01;;;;;;;1.20;1.20;;;;;;;14.08;100.00;94913.94;4973910;28;20089;-53
2022/02/17 03:49:31;;;;;;;1.10;1.10;;;;;;;14.13;100.00;94914.13;4970940;28;20068;-55
2022/02/17 03:51:59;;;;;;;1.10;1.10;;;;;;;14.18;100.00;94915.16;4976810;28;20512;-51
2022/02/17 03:54:27;;;;;;;1.30;1.30;;;;;;;13.95;100.00;94891.69;4971718;28;20069;-54
2022/02/17 03:56:56;;;;;;;1.20;1.20;;;;;;;14.10;100.00;94927.78;4973852;28;20066;-57
2022/02/17 03:59:24;;;;;;;1.10;1.10;;;;;;;13.95;100.00;94893.53;4977508;28;20077;-58
2022/02/17 04:01:53;;;;;;;1.20;1.20;;;;;;;13.93;100.00;94908.81;4976265;28;20074;-58
2022/02/17 04:04:21;;;;;;;1.27;1.27;;;;;;;13.89;100.00;94879.25;4965157;28;20063;-53
2022/02/17 04:06:51;;;;;;;1.10;1.10;;;;;;;13.96;100.00;94903.09;4992923;28;20062;-52
2022/02/17 04:09:20;;;;;;;1.10;1.10;;;;;;;13.95;100.00;94907.59;4981766;28;20478;-53
2022/02/17 04:11:48;;;;;;;1.30;1.30;;;;;;;14.00;100.00;94910.47;4972627;28;20070;-61
2022/02/17 04:14:17;;;;;;;1.10;1.10;;;;;;;13.95;100.00;94920.84;4964884;28;20490;-53
2022/02/17 04:16:45;;;;;;;1.10;1.10;;;;;;;13.78;100.00;94871.91;4968999;28;20082;-56
2022/02/17 04:19:14;;;;;;;1.10;1.10;;;;;;;13.69;100.00;94929.56;4966195;28;20066;-57
2022/02/17 04:21:42;;;;;;;1.10;1.10;;;;;;;13.73;100.00;94937.97;4965896;28;20478;-51
2022/02/17 04:24:12;;;;;;;1.67;1.20;;;;;;;13.67;100.00;94930.81;4964852;28;20074;-55
2022/02/17 04:26:40;;;;;;;1.10;1.10;;;;;;;13.80;100.00;94932.63;4971414;28;20170;-59
2022/02/17 04:29:09;;;;;;;1.27;1.20;;;;;;;13.76;100.00;94922.47;4972418;28;20090;-52
2022/02/17 04:31:38;;;;;;;1.20;1.20;;;;;;;13.68;100.00;94908.59;4964631;28;23385;-53
2022/02/17 04:34:07;;;;;;;1.10;1.10;;;;;;;13.70;100.00;94931.22;4966847;28;20062;-59
2022/02/17 04:36:35;;;;;;;1.17;1.17;;;;;;;13.62;100.00;94864.38;4979690;28;20129;-55
2022/02/17 04:39:04;;;;;;;1.20;1.20;;;;;;;13.92;100.00;94923.91;4988255;28;20532;-56
2022/02/17 04:44:19;;;;;;;1.20;1.20;;;;;;;13.61;100.00;94911.22;4965240;28;20082;-57
2022/02/17 04:46:48;;;;;;;1.90;1.10;;;;;;;13.90;100.00;94914.50;4968305;28;20075;-54
2022/02/17 04:49:16;;;;;;;1.00;1.00;;;;;;;13.86;100.00;94930.00;4963408;28;20083;-55
2022/02/17 04:51:45;;;;;;;1.00;1.00;;;;;;;13.61;100.00;94921.00;4963229;28;20073;-52
2022/02/17 04:54:13;;;;;;;1.00;1.00;;;;;;;13.73;100.00;94922.88;4963070;28;20953;-58
2022/02/17 04:56:43;;;;;;;1.10;1.10;;;;;;;13.70;100.00;94931.22;4972943;28;20131;-56
2022/02/17 04:59:14;;;;;;;1.00;1.00;;;;;;;13.75;100.00;94933.25;4984213;28;20081;-58
2022/02/17 05:01:43;;;;;;;2.25;1.20;;;;;;;13.86;100.00;94964.44;4990820;28;20097;-53
2022/02/17 05:04:11;;;;;;;1.15;1.15;;;;;;;13.72;100.00;94926.53;4987193;28;20077;-54
2022/02/17 05:06:40;;;;;;;1.10;1.10;;;;;;;13.73;100.00;94940.59;4984499;28;20086;-53
2022/02/17 05:09:08;;;;;;;1.10;1.10;;;;;;;13.63;100.00;94921.63;4984566;28;20458;-58
2022/02/17 05:11:37;;;;;;;1.35;1.25;;;;;;;13.74;100.00;94960.78;4987714;28;20069;-56
2022/02/17 05:14:07;;;;;;;1.95;1.20;;;;;;;13.70;100.00;94943.66;4988544;28;20078;-56
2022/02/17 05:16:35;;;;;;;1.20;1.20;;;;;;;13.64;100.00;94924.06;4985306;28;20084;-54
2022/02/17 05:19:04;;;;;;;1.30;1.20;;;;;;;13.57;100.00;94936.50;4986770;28;20058;-59
2022/02/17 05:21:32;;;;;;;1.25;1.20;;;;;;;13.64;100.00;94910.81;4985961;28;20080;-56
2022/02/17 05:24:01;;;;;;;1.10;1.10;;;;;;;13.63;100.00;94951.59;4978452;28;20067;-56
2022/02/17 05:26:29;;;;;;;1.20;1.20;;;;;;;13.54;100.00;94944.81;4965663;28;20086;-61
2022/02/17 05:28:58;;;;;;;1.30;1.20;;;;;;;13.51;100.00;94929.34;4988556;28;20074;-61
2022/02/17 05:31:30;;;;;;;1.17;1.17;;;;;;;13.37;100.00;94947.03;4963952;28;20461;-59
2022/02/17 05:34:00;;;;;;;1.20;1.20;;;;;;;13.59;100.00;94942.38;4977727;28;20078;-62
2022/02/17 05:36:28;;;;;;;1.15;1.15;;;;;;;13.53;100.00;94920.19;4975109;28;20081;-62
2022/02/17 05:38:57;;;;;;;1.10;1.10;;;;;;;13.55;100.00;94893.50;4964926;28;20521;-63
2022/02/17 05:41:25;;;;;;;1.20;1.20;;;;;;;13.73;100.00;94924.72;4964747;28;20112;-62
2022/02/17 05:43:53;;;;;;;1.38;1.27;;;;;;;13.41;100.00;94928.91;4985955;28;20081;-64
2022/02/17 05:46:23;;;;;;;1.20;1.20;;;;;;;13.52;100.00;94909.78;4986330;28;20070;-61
2022/02/17 05:48:53;;;;;;;1.10;1.10;;;;;;;13.70;100.00;94949.75;4980590;28;20525;-65
2022/02/17 05:51:22;;;;;;;1.10;1.10;;;;;;;13.73;100.00;94927.34;4986526;28;20090;-64
2022/02/17 05:53:50;;;;;;;1.52;1.30;;;;;;;13.76;100.00;94934.88;4987928;28;20069;-61
2022/02/17 05:56:19;;;;;;;1.10;1.10;;;;;;;13.79;100.00;94942.44;4984474;28;20078;-60
2022/02/17 05:58:47;;;;;;;1.20;1.20;;;;;;;13.72;100.00;94928.34;4989722;28;20086;-61
2022/02/17 06:01:15;;;;;;;1.30;1.20;;;;;;;13.82;100.00;94941.22;4987005;28;20675;-61
2022/02/17 06:03:44;;;;;;;1.20;1.20;;;;;;;13.63;100.00;94913.69;4986935;28;20066;-61
2022/02/17 06:06:14;;;;;;;1.17;1.17;;;;;;;13.77;100.00;94926.75;4985295;28;20066;-61
2022/02/17 06:08:43;;;;;;;1.20;1.20;;;;;;;13.64;100.00;94907.38;4979239;28;20529;-60
2022/02/17 06:11:12;;;;;;;1.10;1.10;;;;;;;13.74;100.00;94892.69;4966632;28;20074;-61
2022/02/17 06:13:40;;;;;;;1.20;1.20;;;;;;;13.86;100.00;94945.91;4964463;28;21300;-58
2022/02/17 06:16:08;;;;;;;1.30;1.23;;;;;;;13.68;100.00;94946.50;4967653;28;20070;-61
2022/02/17 06:18:37;;;;;;;1.20;1.20;;;;;;;13.70;100.00;94952.41;4973161;28;20540;-57
2022/02/17 06:21:05;;;;;;;1.25;1.25;;;;;;;13.70;100.00;94911.88;4971180;28;20490;-59
2022/02/17 06:23:35;;;;;;;1.20;1.20;;;;;;;13.85;100.00;94944.28;4973185;28;20113;-60
2022/02/17 06:26:04;;;;;;;1.23;1.23;;;;;;;13.62;100.00;94944.63;4973943;28;20097;-60
2022/02/17 06:28:32;;;;;;;1.20;1.20;;;;;;;13.78;100.00;94920.41;4989588;28;20073;-59
2022/02/17 06:31:00;;;;;;;1.35;1.20;;;;;;;13.73;100.00;94967.91;4988622;28;20476;-59
2022/02/17 06:33:30;;;;;;;1.20;1.20;;;;;;;13.72;100.00;94968.09;4988434;28;20074;-63
2022/02/17 06:35:59;;;;;;;1.20;1.20;;;;;;;13.78;100.00;94964.66;4990154;28;20069;-61
2022/02/17 06:38:27;;;;;;;1.10;1.10;;;;;;;13.61;100.00;94945.66;4992730;28;20086;-62
2022/02/17 06:40:57;;;;;;;1.10;1.10;;;;;;;13.69;100.00;94964.00;4993314;28;20078;-67
2022/02/17 06:43:26;;;;;;;1.38;1.27;;;;;;;13.62;100.00;94970.31;4989605;28;20469;-65
2022/02/17 06:45:55;;;;;;;1.25;1.25;;;;;;;13.65;100.00;94970.72;4989343;28;20070;-62
2022/02/17 06:48:23;;;;;;;1.20;1.20;;;;;;;13.68;100.00;94949.13;4988464;28;20065;-63
2022/02/17 06:50:52;;;;;;;1.20;1.20;;;;;;;13.72;100.00;94958.31;4987844;28;20073;-66
2022/02/17 06:53:20;;;;;;;1.20;1.20;;;;;;;13.68;100.00;94956.28;4987734;28;20268;-64
2022/02/17 06:55:49;;;;;;;1.27;1.20;;;;;;;13.84;100.00;94981.59;4990664;28;20093;-63
2022/02/17 06:58:18;;;;;;;1.13;1.13;;;;;;;13.86;100.00;94961.78;4971589;28;20062;-62
2022/02/17 07:00:47;;;;;;;1.17;1.17;;;;;;;13.94;100.00;94987.31;4966248;28;20067;-59
2022/02/17 07:03:15;;;;;;;1.20;1.20;;;;;;;14.15;100.00;94965.09;4971168;28;20472;-61
2022/02/17 07:05:44;;;;;;;1.40;1.30;;;;;;;14.10;100.00;94984.25;4977043;28;20066;-60
2022/02/17 07:08:13;;;;;;;1.20;1.20;;;;;;;14.10;100.00;94972.84;4984743;28;20105;-62
2022/02/17 07:10:56;;;;;;;1.38;1.10;;;;;;;14.33;100.00;94980.41;4988912;28;20318;-60
2022/02/17 07:13:28;;;;;;;1.10;1.10;;;;;;;14.20;100.00;94965.28;4991435;28;20073;-61
2022/02/17 07:15:57;;;;;;;1.10;1.10;;;;;;;14.17;100.00;94933.88;4985611;28;20078;-58
2022/02/17 07:18:26;;;;;;;1.20;1.10;;;;;;;14.39;100.00;95008.75;4986685;28;20074;-60
2022/02/17 07:20:55;;;;;;;1.50;1.30;;;;;;;14.32;100.00;94984.88;4988278;28;20066;-60
2022/02/17 07:23:25;;;;;;;1.40;1.30;;;;;;;14.38;100.00;95007.94;4985967;28;20671;-61
2022/02/17 07:25:54;;;;;;;;;;;;;;;14.17;100.00;95002.81;4988057;28;20465;-59
2022/02/17 07:28:25;;;;;;;1.10;1.10;;;;;;;14.51;100.00;95008.97;4989925;28;19975;-57
2022/02/17 07:30:55;;;;;;;1.27;1.20;;;;;;;14.18;100.00;95047.69;4987790;28;20074;-61
2022/02/17 07:33:24;;;;;;;1.20;1.20;;;;;;;13.93;100.00;95038.66;4984994;28;20478;-60
2022/02/17 07:35:52;;;;;;;1.30;1.30;;;;;;;13.45;100.00;95044.00;4986362;28;20070;-65
2022/02/17 07:38:41;;;;;;;1.20;1.20;;;;;;;13.59;100.00;95069.50;4983383;28;20081;-60
2022/02/17 07:41:11;;;;;;;1.20;1.20;;;;;;;13.59;100.00;95056.28;4973313;28;20567;-61
2022/02/17 07:43:39;;;;;;;1.20;1.20;;;;;;;13.47;100.00;95042.78;4984997;28;21945;-61
2022/02/17 07:46:09;;;;;;;1.25;1.20;;;;;;;13.51;100.00;95041.38;4971021;28;20063;-62
2022/02/17 07:48:38;;;;;;;1.30;1.30;;;;;;;13.55;100.00;95049.75;4971281;28;20477;-60
2022/02/17 07:51:07;;;;;;;1.35;1.20;;;;;;;13.56;100.00;95056.69;4978909;28;20081;-57
2022/02/17 07:53:36;;;;;;;1.35;1.25;;;;;;;13.28;100.00;95051.44;4988569;28;20481;-63
2022/02/17 07:56:05;;;;;;;1.38;1.33;;;;;;;12.98;100.00;95080.78;4989758;28;20086;-61
2022/02/17 07:58:33;;;;;;;1.23;1.23;;;;;;;13.09;100.00;95094.47;4989617;28;20069;-62
2022/02/17 08:01:02;;;;;;;1.35;1.27;;;;;;;13.01;100.00;95080.41;4987243;28;20070;-64
2022/02/17 08:03:33;;;;;;;1.50;1.40;;;;;;;13.01;100.00;95087.50;4986618;28;20077;-63
2022/02/17 08:06:01;;;;;;;1.30;1.30;;;;;;;12.95;100.00;95040.66;4994947;28;20077;-62
2022/02/17 08:08:51;;;;;;;1.40;1.30;;;;;;;12.93;100.00;95112.28;4984476;28;20058;-63
2022/02/17 08:11:20;;;;;;;1.20;1.20;;;;;;;12.96;100.00;95064.25;4966948;28;20074;-64
2022/02/17 08:13:48;;;;;;;1.30;1.30;;;;;;;12.86;100.00;95113.22;4966666;28;20529;-62
2022/02/17 08:16:17;;;;;;;1.40;1.30;;;;;;;13.06;100.00;95099.13;4966330;28;20074;-67
2022/02/17 08:18:46;;;;;;;1.30;1.30;;;;;;;13.07;100.00;95092.84;4977277;28;20073;-65
2022/02/17 08:21:35;;;;;;;1.47;1.37;;;;;;;13.11;100.00;95092.44;4971072;28;20073;-62
2022/02/17 08:24:05;;;;;;;1.50;1.40;;;;;;;13.24;100.00;95106.59;4967275;28;20073;-63
2022/02/17 08:26:38;;;;;;;1.30;1.30;;;;;;;13.32;100.00;95100.38;4967880;28;20066;-64
2022/02/17 08:29:07;;;;;;;1.40;1.30;;;;;;;13.32;100.00;95105.66;4967094;28;20078;-62
2022/02/17 08:31:36;;;;;;;1.50;1.40;;;;;;;13.46;100.00;95120.59;4976535;28;20077;-67
2022/02/17 08:34:07;;;;;;;1.48;1.40;;;;;;;13.40;100.00;95109.97;4980576;28;20093;-64
2022/02/17 08:36:36;;;;;;;1.30;1.30;;;;;;;13.48;100.00;95131.81;4976576;28;20066;-64
2022/02/17 08:39:06;;;;;;;1.30;1.30;;;;;;;13.48;100.00;95157.47;4967364;28;20456;-64
2022/02/17 08:41:37;;;;;;;1.40;1.30;;;;;;;13.49;100.00;95149.34;4968823;28;20077;-65
2022/02/17 08:44:07;;;;;;;1.25;1.23;;;;;;;13.46;100.00;95160.31;4972155;28;20063;-65
2022/02/17 08:46:36;;;;;;;1.33;1.33;;;;;;;13.47;100.00;95132.00;4993113;28;20050;-65
2022/02/17 08:49:07;;;;;;;1.35;1.35;;;;;;;13.43;100.00;95183.72;4991919;28;20353;-64
2022/02/17 08:51:37;;;;;;;2.35;1.63;;;;;;;13.94;100.00;95204.63;4987964;28;20070;-65
2022/02/17 08:54:06;;;;;;;1.50;1.40;;;;;;;12.78;100.00;95238.53;4988393;28;20461;-67
2022/02/17 08:56:35;;;;;;;1.45;1.35;;;;;;;17.89;100.00;95224.63;4990691;28;20078;-65
2022/02/17 08:59:04;;;;;;;3.53;1.80;;;;;;;-146.19;100.00;58918.88;5000290;28;20101;-64
2022/02/17 09:01:33;;;;;;;1.88;1.60;;;;;;;12.49;100.00;95260.56;4997215;28;20062;-63
2022/02/17 09:04:01;;;;;;;4.25;1.58;;;;;;;12.10;100.00;95236.13;4993163;28;20066;-61
2022/02/17 09:06:33;;;;;;;1.52;1.42;;;;;;;12.08;100.00;95272.50;4983938;28;20069;-61
2022/02/17 09:09:02;;;;;;;1.40;1.30;;;;;;;15.71;100.00;95264.66;4988807;28;20084;-60
2022/02/17 09:11:32;;;;;;;;;;;;;;;12.78;100.00;95284.31;4986903;28;20073;-60
2022/02/17 09:14:00;;;;;;;2.08;1.65;;;;;;;-146.19;100.00;58918.88;4992170;28;19973;-58
2022/02/17 09:16:29;;;;;;;1.60;1.50;;;;;;;13.89;100.00;95268.78;4984854;28;20065;-57
2022/02/17 09:18:57;;;;;;;4.53;2.03;;;;;;;12.38;100.00;95253.94;4971626;28;20086;-59
2022/02/17 09:21:26;;;;;;;3.00;1.90;;;;;;;11.80;100.00;95271.44;4964656;28;20480;-61
2022/02/17 09:23:56;;;;;;;2.00;1.65;;;;;;;-146.19;100.00;58918.88;4962869;28;20089;-60
2022/02/17 09:26:25;;;;;;;2.60;1.70;;;;;;;11.41;100.00;95285.69;4964243;28;20078;-61
2022/02/17 09:28:53;;;;;;;4.60;1.70;;;;;;;11.59;100.00;95270.31;4973769;28;20492;-57
2022/02/17 09:31:42;;;;;;;2.53;1.65;;;;;;;11.64;100.00;95285.66;4984767;28;20870;-56
2022/02/17 09:34:11;;;;;;;2.03;1.70;;;;;;;11.75;100.00;95269.34;4984473;28;20528;-61
2022/02/17 09:36:40;;;;;;;2.10;2.00;;;;;;;11.98;100.00;95269.31;4989669;28;20076;-61
2022/02/17 09:39:10;;;;;;;1.77;1.67;;;;;;;12.01;100.00;95263.66;4986857;28;20066;-61
2022/02/17 09:41:39;;;;;;;7.85;1.77;;;;;;;12.01;100.00;95263.66;4985067;28;20070;-61
2022/02/17 09:44:09;;;;;;;2.88;2.00;;;;;;;12.51;100.00;95283.19;4986012;28;20093;-62
2022/02/17 09:46:44;;;;;;;2.08;1.70;;;;;;;12.16;100.00;95299.84;4963580;28;20485;-60
2022/02/17 09:49:16;;;;;;;2.80;1.90;;;;;;;12.67;100.00;95292.75;4963301;28;20082;-60
2022/02/17 09:51:45;;;;;;;2.15;1.60;;;;;;;12.16;100.00;95278.69;4975199;28;20066;-62
2022/02/17 09:54:15;;;;;;;1.77;1.67;;;;;;;12.03;100.00;95277.50;4979625;28;20058;-62
2022/02/17 09:56:44;;;;;;;2.15;1.73;;;;;;;12.20;100.00;95270.19;4975143;28;20078;-61
2022/02/17 09:59:15;;;;;;;1.98;1.77;;;;;;;12.08;100.00;95282.25;4970573;28;20534;-62
2022/02/17 10:01:53;;;;;;;1.85;1.67;;;;;;;11.98;100.00;95268.50;4976169;28;20086;-62
2022/02/17 10:04:23;;;;;;;1.60;1.50;;;;;;;12.03;100.00;95303.09;4969847;28;20077;-62
2022/02/17 10:06:53;;;;;;;2.85;1.70;;;;;;;12.38;100.00;95308.66;4985182;28;20464;-62
2022/02/17 10:09:25;;;;;;;7.43;2.10;;;;;;;12.20;100.00;95309.84;4987051;28;20073;-60
2022/02/17 10:11:54;;;;;;;3.88;1.75;;;;;;;12.27;100.00;95309.94;4988651;28;20593;-61
2022/02/17 10:14:22;;;;;;;2.15;1.95;;;;;;;12.41;100.00;95293.22;4986181;28;20732;-61
2022/02/17 10:16:55;;;;;;;5.43;1.80;;;;;;;12.46;100.00;95261.78;4991766;28;20093;-62
2022/02/17 10:19:25;;;;;;;2.05;1.67;;;;;;;12.58;100.00;95277.97;4987901;28;20466;-62
2022/02/17 10:22:08;;;;;;;1.77;1.67;;;;;;;12.81;100.00;95296.34;4990047;28;20158;-63
2022/02/17 10:24:40;;;;;;;5.30;1.85;;;;;;;12.85;100.00;95280.91;4992381;28;20058;-63
2022/02/17 10:27:12;;;;;;;4.50;1.80;;;;;;;12.65;100.00;95315.09;4990967;28;20043;-63
2022/02/17 10:29:58;;;;;;;3.78;1.98;;;;;;;12.75;100.00;95331.47;4988237;28;20124;-63
2022/02/17 10:32:27;;;;;;;4.10;2.00;;;;;;;13.11;100.00;95322.69;4988601;28;20114;-62
2022/02/17 10:35:09;;;;;;;3.30;1.60;;;;;;;13.00;100.00;95316.91;4992572;28;20457;-62
2022/02/17 10:37:45;;;;;;;4.13;1.90;;;;;;;12.70;100.00;95318.00;4987599;28;20339;-63
2022/02/17 10:40:23;;;;;;;5.07;1.75;;;;;;;12.24;100.00;95316.41;4986448;28;20066;-63
2022/02/17 10:43:02;;;;;;;6.90;2.05;;;;;;;12.38;100.00;95335.06;4990741;28;20059;-63
2022/02/17 10:45:39;;;;;;;5.07;1.90;;;;;;;12.50;100.00;95338.91;4991019;28;20078;-63
2022/02/17 10:48:16;;;;;;;2.53;1.80;;;;;;;12.49;100.00;95340.75;4990441;28;20077;-62
2022/02/17 10:50:47;;;;;;;2.33;1.70;;;;;;;12.72;100.00;95345.88;4987413;28;20484;-62
2022/02/17 10:53:16;;;;;;;;;;;;;;;12.58;100.00;95342.25;4988367;28;21002;-62
2022/02/17 10:55:56;;;;;;;3.67;1.70;;;;;;;12.60;100.00;95352.66;4995931;28;19976;-62
2022/02/17 10:58:27;;;;;;;2.35;1.73;;;;;;;12.54;100.00;95348.94;4989467;28;20081;-63
2022/02/17 11:00:57;;;;;;;4.00;2.00;;;;;;;12.73;100.00;95354.63;4986370;28;20481;-58
2022/02/17 11:03:27;;;;;;;3.65;1.98;;;;;;;12.49;100.00;95366.34;4984152;28;20066;-60
2022/02/17 11:06:12;;;;;;;3.97;1.80;;;;;;;12.90;100.00;95381.72;4986354;28;20098;-57
2022/02/17 11:08:41;;;;;;;4.60;1.70;;;;;;;13.00;100.00;95383.06;4985311;28;20078;-59
2022/02/17 11:11:13;;;;;;;4.15;1.70;;;;;;;13.07;100.00;95378.69;4990495;28;20103;-59
2022/02/17 11:13:44;;;;;;;6.05;2.10;;;;;;;13.11;100.00;95397.66;4986643;28;20547;-58
2022/02/17 11:16:15;;;;;;;4.82;2.13;;;;;;;13.36;100.00;95392.84;4987053;28;20085;-57
2022/02/17 11:18:44;;;;;;;5.00;2.00;;;;;;;13.35;100.00;95400.97;4985382;28;20516;-58
2022/02/17 11:21:16;;;;;;;5.07;1.95;;;;;;;13.87;100.00;95407.81;4986175;28;20073;-60
2022/02/17 11:23:45;;;;;;;5.50;2.38;;;;;;;13.45;100.00;95422.66;4989144;28;20074;-59
2022/02/17 11:26:26;;;;;;;3.23;1.97;;;;;;;13.40;100.00;95403.88;4990462;28;20078;-61
2022/02/17 11:28:59;;;;;;;3.10;1.83;;;;;;;13.68;100.00;95407.41;4988030;28;20089;-62
2022/02/17 11:31:28;;;;;;;6.18;2.20;;;;;;;13.86;100.00;95404.31;4985156;28;20080;-59
2022/02/17 11:33:58;;;;;;;5.20;1.95;;;;;;;13.87;100.00;95397.22;4991720;28;20076;-59
2022/02/17 11:36:32;;;;;;;7.10;2.03;;;;;;;13.64;100.00;95406.16;4992174;28;20065;-59
2022/02/17 11:39:06;;;;;;;5.78;2.22;;;;;;;13.57;100.00;95409.78;4985463;28;20097;-60
2022/02/17 11:41:36;;;;;;;4.78;1.77;;;;;;;13.97;100.00;95387.06;4994436;28;20065;-61